sensor_id;sensor_type;location;lat;lon;timestamp;P1;durP1;ratioP1;P2;durP2;ratioP2
33830;SDS011;20137;48.834;8.732;2024-01-25T00:01:51;25.88;;;4.18;;
33830;SDS011;20137;48.834;8.732;2024-01-25T00:04:17;36.95;;;5.78;;
33830;SDS011;20137;48.834;8.732;2024-01-25T00:06:44;39.22;;;5.88;;
33830;SDS011;20137;48.834;8.732;2024-01-25T00:09:10;38.50;;;5.25;;
33830;SDS011;20137;48.834;8.732;2024-01-25T00:11:36;25.98;;;4.63;;
33830;SDS011;20137;48.834;8.732;2024-01-25T00:14:02;30.67;;;4.70;;
33830;SDS011;20137;48.834;8.732;2024-01-25T00:16:31;37.97;;;5.15;;
33830;SDS011;20137;48.834;8.732;2024-01-25T00:18:56;29.83;;;4.05;;
33830;SDS011;20137;48.834;8.732;2024-01-25T00:21:22;41.13;;;6.20;;
33830;SDS011;20137;48.834;8.732;2024-01-25T00:23:48;34.45;;;5.30;;
33830;SDS011;20137;48.834;8.732;2024-01-25T00:26:15;35.83;;;6.20;;
33830;SDS011;20137;48.834;8.732;2024-01-25T00:28:41;30.63;;;5.13;;
33830;SDS011;20137;48.834;8.732;2024-01-25T00:31:07;35.65;;;5.60;;
33830;SDS011;20137;48.834;8.732;2024-01-25T00:33:33;42.03;;;6.82;;
33830;SDS011;20137;48.834;8.732;2024-01-25T00:36:01;36.17;;;5.25;;
33830;SDS011;20137;48.834;8.732;2024-01-25T00:38:27;33.97;;;4.55;;
33830;SDS011;20137;48.834;8.732;2024-01-25T00:40:54;38.33;;;5.53;;
33830;SDS011;20137;48.834;8.732;2024-01-25T00:43:20;29.73;;;5.38;;
33830;SDS011;20137;48.834;8.732;2024-01-25T00:45:46;24.63;;;5.38;;
33830;SDS011;20137;48.834;8.732;2024-01-25T00:48:12;26.25;;;5.50;;
33830;SDS011;20137;48.834;8.732;2024-01-25T00:50:38;36.85;;;5.25;;
33830;SDS011;20137;48.834;8.732;2024-01-25T00:53:04;34.50;;;5.65;;
33830;SDS011;20137;48.834;8.732;2024-01-25T00:55:30;35.05;;;5.72;;
33830;SDS011;20137;48.834;8.732;2024-01-25T00:57:57;31.20;;;4.43;;
33830;SDS011;20137;48.834;8.732;2024-01-25T01:00:24;24.73;;;4.00;;
33830;SDS011;20137;48.834;8.732;2024-01-25T01:02:50;22.73;;;4.28;;
33830;SDS011;20137;48.834;8.732;2024-01-25T01:05:19;34.80;;;4.47;;
33830;SDS011;20137;48.834;8.732;2024-01-25T01:07:45;29.58;;;4.50;;
33830;SDS011;20137;48.834;8.732;2024-01-25T01:10:11;29.05;;;5.13;;
33830;SDS011;20137;48.834;8.732;2024-01-25T01:12:39;35.55;;;5.40;;
33830;SDS011;20137;48.834;8.732;2024-01-25T01:15:05;29.65;;;5.15;;
33830;SDS011;20137;48.834;8.732;2024-01-25T01:17:31;33.75;;;5.63;;
33830;SDS011;20137;48.834;8.732;2024-01-25T01:19:57;34.78;;;5.95;;
33830;SDS011;20137;48.834;8.732;2024-01-25T01:22:23;23.23;;;4.00;;
33830;SDS011;20137;48.834;8.732;2024-01-25T01:24:49;22.98;;;4.68;;
33830;SDS011;20137;48.834;8.732;2024-01-25T01:27:15;35.60;;;4.65;;
33830;SDS011;20137;48.834;8.732;2024-01-25T01:29:41;33.90;;;5.57;;
33830;SDS011;20137;48.834;8.732;2024-01-25T01:32:10;32.85;;;5.05;;
33830;SDS011;20137;48.834;8.732;2024-01-25T01:34:36;21.90;;;4.95;;
33830;SDS011;20137;48.834;8.732;2024-01-25T01:37:02;25.63;;;4.20;;
33830;SDS011;20137;48.834;8.732;2024-01-25T01:39:28;36.60;;;4.88;;
33830;SDS011;20137;48.834;8.732;2024-01-25T01:41:54;30.67;;;5.20;;
33830;SDS011;20137;48.834;8.732;2024-01-25T01:44:20;29.17;;;4.88;;
33830;SDS011;20137;48.834;8.732;2024-01-25T01:46:46;30.55;;;4.57;;
33830;SDS011;20137;48.834;8.732;2024-01-25T01:49:13;28.48;;;4.28;;
33830;SDS011;20137;48.834;8.732;2024-01-25T01:51:40;26.38;;;4.55;;
33830;SDS011;20137;48.834;8.732;2024-01-25T01:54:07;32.33;;;4.40;;
33830;SDS011;20137;48.834;8.732;2024-01-25T01:56:33;42.38;;;5.85;;
33830;SDS011;20137;48.834;8.732;2024-01-25T01:58:59;39.40;;;5.22;;
33830;SDS011;20137;48.834;8.732;2024-01-25T02:01:26;31.00;;;4.00;;
33830;SDS011;20137;48.834;8.732;2024-01-25T02:03:52;27.80;;;4.03;;
33830;SDS011;20137;48.834;8.732;2024-01-25T02:06:19;33.25;;;4.57;;
33830;SDS011;20137;48.834;8.732;2024-01-25T02:08:48;34.25;;;4.63;;
33830;SDS011;20137;48.834;8.732;2024-01-25T02:11:16;27.67;;;5.03;;
33830;SDS011;20137;48.834;8.732;2024-01-25T02:13:42;33.78;;;4.55;;
33830;SDS011;20137;48.834;8.732;2024-01-25T02:16:08;22.58;;;4.68;;
33830;SDS011;20137;48.834;8.732;2024-01-25T02:18:34;33.97;;;5.45;;
33830;SDS011;20137;48.834;8.732;2024-01-25T02:21:00;33.40;;;5.00;;
33830;SDS011;20137;48.834;8.732;2024-01-25T02:23:26;33.00;;;4.85;;
33830;SDS011;20137;48.834;8.732;2024-01-25T02:25:52;40.15;;;5.35;;
33830;SDS011;20137;48.834;8.732;2024-01-25T02:28:18;31.67;;;4.72;;
33830;SDS011;20137;48.834;8.732;2024-01-25T02:30:45;33.97;;;4.80;;
33830;SDS011;20137;48.834;8.732;2024-01-25T02:33:11;38.72;;;5.28;;
33830;SDS011;20137;48.834;8.732;2024-01-25T02:35:40;28.52;;;5.13;;
33830;SDS011;20137;48.834;8.732;2024-01-25T02:38:06;29.27;;;4.55;;
33830;SDS011;20137;48.834;8.732;2024-01-25T02:40:32;25.88;;;4.38;;
33830;SDS011;20137;48.834;8.732;2024-01-25T02:42:58;33.88;;;5.03;;
33830;SDS011;20137;48.834;8.732;2024-01-25T02:45:24;35.90;;;5.00;;
33830;SDS011;20137;48.834;8.732;2024-01-25T02:47:50;31.83;;;5.35;;
33830;SDS011;20137;48.834;8.732;2024-01-25T02:50:16;34.05;;;5.35;;
33830;SDS011;20137;48.834;8.732;2024-01-25T02:52:42;21.77;;;4.18;;
33830;SDS011;20137;48.834;8.732;2024-01-25T02:55:08;30.48;;;4.10;;
33830;SDS011;20137;48.834;8.732;2024-01-25T02:57:34;24.15;;;4.50;;
33830;SDS011;20137;48.834;8.732;2024-01-25T03:00:00;32.13;;;4.68;;
33830;SDS011;20137;48.834;8.732;2024-01-25T03:02:26;27.35;;;3.92;;
33830;SDS011;20137;48.834;8.732;2024-01-25T03:04:52;24.67;;;4.43;;
33830;SDS011;20137;48.834;8.732;2024-01-25T03:07:18;37.25;;;4.85;;
33830;SDS011;20137;48.834;8.732;2024-01-25T03:09:44;34.50;;;5.15;;
33830;SDS011;20137;48.834;8.732;2024-01-25T03:12:10;26.15;;;5.45;;
33830;SDS011;20137;48.834;8.732;2024-01-25T03:14:36;22.08;;;4.40;;
33830;SDS011;20137;48.834;8.732;2024-01-25T03:17:02;25.88;;;4.15;;
33830;SDS011;20137;48.834;8.732;2024-01-25T03:19:28;32.28;;;5.88;;
33830;SDS011;20137;48.834;8.732;2024-01-25T03:21:54;23.95;;;3.80;;
33830;SDS011;20137;48.834;8.732;2024-01-25T03:24:20;35.50;;;5.68;;
33830;SDS011;20137;48.834;8.732;2024-01-25T03:26:47;34.42;;;5.05;;
33830;SDS011;20137;48.834;8.732;2024-01-25T03:29:13;30.70;;;6.25;;
33830;SDS011;20137;48.834;8.732;2024-01-25T03:31:39;36.80;;;4.15;;
33830;SDS011;20137;48.834;8.732;2024-01-25T03:34:07;23.50;;;3.65;;
33830;SDS011;20137;48.834;8.732;2024-01-25T03:36:33;26.25;;;3.95;;
33830;SDS011;20137;48.834;8.732;2024-01-25T03:39:00;29.23;;;4.75;;
33830;SDS011;20137;48.834;8.732;2024-01-25T03:41:27;32.28;;;5.40;;
33830;SDS011;20137;48.834;8.732;2024-01-25T03:43:54;22.17;;;4.38;;
33830;SDS011;20137;48.834;8.732;2024-01-25T03:46:20;25.48;;;4.15;;
33830;SDS011;20137;48.834;8.732;2024-01-25T03:48:46;17.05;;;3.67;;
33830;SDS011;20137;48.834;8.732;2024-01-25T03:51:12;25.77;;;4.40;;
33830;SDS011;20137;48.834;8.732;2024-01-25T03:53:38;24.90;;;4.68;;
33830;SDS011;20137;48.834;8.732;2024-01-25T03:56:09;29.20;;;5.82;;
33830;SDS011;20137;48.834;8.732;2024-01-25T03:58:36;36.45;;;4.65;;
33830;SDS011;20137;48.834;8.732;2024-01-25T04:01:02;23.13;;;4.15;;
33830;SDS011;20137;48.834;8.732;2024-01-25T04:03:28;31.58;;;5.47;;
33830;SDS011;20137;48.834;8.732;2024-01-25T04:05:54;26.15;;;4.20;;
33830;SDS011;20137;48.834;8.732;2024-01-25T04:08:20;30.55;;;4.88;;
33830;SDS011;20137;48.834;8.732;2024-01-25T04:10:46;25.10;;;4.60;;
33830;SDS011;20137;48.834;8.732;2024-01-25T04:13:12;35.78;;;4.65;;
33830;SDS011;20137;48.834;8.732;2024-01-25T04:15:38;29.15;;;4.13;;
33830;SDS011;20137;48.834;8.732;2024-01-25T04:18:04;36.58;;;3.85;;
33830;SDS011;20137;48.834;8.732;2024-01-25T04:20:30;27.65;;;4.47;;
33830;SDS011;20137;48.834;8.732;2024-01-25T04:22:59;29.48;;;4.43;;
33830;SDS011;20137;48.834;8.732;2024-01-25T04:25:25;36.65;;;5.15;;
33830;SDS011;20137;48.834;8.732;2024-01-25T04:27:54;30.63;;;5.60;;
33830;SDS011;20137;48.834;8.732;2024-01-25T04:30:20;28.50;;;4.43;;
33830;SDS011;20137;48.834;8.732;2024-01-25T04:32:46;35.78;;;5.43;;
33830;SDS011;20137;48.834;8.732;2024-01-25T04:35:12;24.50;;;4.68;;
33830;SDS011;20137;48.834;8.732;2024-01-25T04:37:38;25.45;;;4.78;;
33830;SDS011;20137;48.834;8.732;2024-01-25T04:40:04;30.15;;;4.20;;
33830;SDS011;20137;48.834;8.732;2024-01-25T04:42:31;32.38;;;5.30;;
33830;SDS011;20137;48.834;8.732;2024-01-25T04:44:57;31.45;;;4.90;;
33830;SDS011;20137;48.834;8.732;2024-01-25T04:47:23;34.90;;;5.38;;
33830;SDS011;20137;48.834;8.732;2024-01-25T04:49:49;32.58;;;5.07;;
33830;SDS011;20137;48.834;8.732;2024-01-25T04:52:14;40.38;;;5.38;;
33830;SDS011;20137;48.834;8.732;2024-01-25T04:54:41;32.60;;;4.88;;
33830;SDS011;20137;48.834;8.732;2024-01-25T04:57:09;43.05;;;5.55;;
33830;SDS011;20137;48.834;8.732;2024-01-25T04:59:35;35.38;;;4.97;;
33830;SDS011;20137;48.834;8.732;2024-01-25T05:02:01;38.53;;;5.72;;
33830;SDS011;20137;48.834;8.732;2024-01-25T05:04:28;28.95;;;4.40;;
33830;SDS011;20137;48.834;8.732;2024-01-25T05:06:55;39.22;;;5.47;;
33830;SDS011;20137;48.834;8.732;2024-01-25T05:09:21;31.75;;;5.47;;
33830;SDS011;20137;48.834;8.732;2024-01-25T05:11:47;39.50;;;5.72;;
33830;SDS011;20137;48.834;8.732;2024-01-25T05:14:13;33.00;;;4.35;;
33830;SDS011;20137;48.834;8.732;2024-01-25T05:16:39;34.17;;;5.20;;
33830;SDS011;20137;48.834;8.732;2024-01-25T05:19:05;32.17;;;4.68;;
33830;SDS011;20137;48.834;8.732;2024-01-25T05:21:31;32.60;;;5.22;;
33830;SDS011;20137;48.834;8.732;2024-01-25T05:23:57;28.73;;;4.68;;
33830;SDS011;20137;48.834;8.732;2024-01-25T05:26:23;31.75;;;4.70;;
33830;SDS011;20137;48.834;8.732;2024-01-25T05:28:49;32.10;;;4.93;;
33830;SDS011;20137;48.834;8.732;2024-01-25T05:31:15;29.85;;;5.70;;
33830;SDS011;20137;48.834;8.732;2024-01-25T05:33:42;42.28;;;5.20;;
33830;SDS011;20137;48.834;8.732;2024-01-25T05:36:08;38.13;;;5.15;;
33830;SDS011;20137;48.834;8.732;2024-01-25T05:38:34;39.30;;;5.68;;
33830;SDS011;20137;48.834;8.732;2024-01-25T05:41:01;38.88;;;5.60;;
33830;SDS011;20137;48.834;8.732;2024-01-25T05:43:27;34.95;;;4.35;;
33830;SDS011;20137;48.834;8.732;2024-01-25T05:45:53;37.20;;;5.22;;
33830;SDS011;20137;48.834;8.732;2024-01-25T05:48:19;28.42;;;5.40;;
33830;SDS011;20137;48.834;8.732;2024-01-25T05:50:45;39.35;;;5.97;;
33830;SDS011;20137;48.834;8.732;2024-01-25T05:53:11;30.58;;;4.72;;
33830;SDS011;20137;48.834;8.732;2024-01-25T05:55:37;36.47;;;5.97;;
33830;SDS011;20137;48.834;8.732;2024-01-25T05:58:03;34.05;;;5.72;;
33830;SDS011;20137;48.834;8.732;2024-01-25T06:00:29;41.25;;;5.32;;
33830;SDS011;20137;48.834;8.732;2024-01-25T06:02:55;36.75;;;4.93;;
33830;SDS011;20137;48.834;8.732;2024-01-25T06:05:21;39.08;;;5.63;;
33830;SDS011;20137;48.834;8.732;2024-01-25T06:07:47;35.85;;;5.40;;
33830;SDS011;20137;48.834;8.732;2024-01-25T06:10:15;39.38;;;5.47;;
33830;SDS011;20137;48.834;8.732;2024-01-25T06:12:41;31.48;;;4.40;;
33830;SDS011;20137;48.834;8.732;2024-01-25T06:15:07;39.53;;;5.60;;
33830;SDS011;20137;48.834;8.732;2024-01-25T06:17:33;37.53;;;5.63;;
33830;SDS011;20137;48.834;8.732;2024-01-25T06:19:59;38.10;;;5.90;;
33830;SDS011;20137;48.834;8.732;2024-01-25T06:22:25;40.90;;;5.88;;
33830;SDS011;20137;48.834;8.732;2024-01-25T06:24:51;45.72;;;5.93;;
33830;SDS011;20137;48.834;8.732;2024-01-25T06:27:17;29.50;;;5.13;;
33830;SDS011;20137;48.834;8.732;2024-01-25T06:29:43;41.28;;;6.05;;
33830;SDS011;20137;48.834;8.732;2024-01-25T06:32:10;29.13;;;4.65;;
33830;SDS011;20137;48.834;8.732;2024-01-25T06:34:36;39.55;;;5.55;;
33830;SDS011;20137;48.834;8.732;2024-01-25T06:37:02;31.85;;;4.68;;
33830;SDS011;20137;48.834;8.732;2024-01-25T06:39:28;43.03;;;6.40;;
33830;SDS011;20137;48.834;8.732;2024-01-25T06:41:54;40.33;;;6.65;;
33830;SDS011;20137;48.834;8.732;2024-01-25T06:44:20;44.72;;;6.22;;
33830;SDS011;20137;48.834;8.732;2024-01-25T06:46:46;45.38;;;6.93;;
33830;SDS011;20137;48.834;8.732;2024-01-25T06:49:12;41.10;;;5.55;;
33830;SDS011;20137;48.834;8.732;2024-01-25T06:51:38;36.55;;;5.18;;
33830;SDS011;20137;48.834;8.732;2024-01-25T06:54:04;43.95;;;6.38;;
33830;SDS011;20137;48.834;8.732;2024-01-25T06:56:30;37.22;;;6.20;;
33830;SDS011;20137;48.834;8.732;2024-01-25T06:58:56;33.03;;;6.10;;
33830;SDS011;20137;48.834;8.732;2024-01-25T07:01:23;40.80;;;5.85;;
33830;SDS011;20137;48.834;8.732;2024-01-25T07:03:49;47.78;;;8.05;;
33830;SDS011;20137;48.834;8.732;2024-01-25T07:06:18;36.92;;;5.80;;
33830;SDS011;20137;48.834;8.732;2024-01-25T07:08:44;38.42;;;5.13;;
33830;SDS011;20137;48.834;8.732;2024-01-25T07:11:10;39.28;;;5.43;;
33830;SDS011;20137;48.834;8.732;2024-01-25T07:13:36;41.80;;;7.13;;
33830;SDS011;20137;48.834;8.732;2024-01-25T07:16:02;29.17;;;5.10;;
33830;SDS011;20137;48.834;8.732;2024-01-25T07:18:29;37.03;;;5.60;;
33830;SDS011;20137;48.834;8.732;2024-01-25T07:20:55;42.03;;;6.22;;
33830;SDS011;20137;48.834;8.732;2024-01-25T07:23:21;41.38;;;5.78;;
33830;SDS011;20137;48.834;8.732;2024-01-25T07:25:47;39.83;;;5.15;;
33830;SDS011;20137;48.834;8.732;2024-01-25T07:28:13;28.05;;;4.65;;
33830;SDS011;20137;48.834;8.732;2024-01-25T07:30:39;28.98;;;5.00;;
33830;SDS011;20137;48.834;8.732;2024-01-25T07:33:05;31.55;;;4.95;;
33830;SDS011;20137;48.834;8.732;2024-01-25T07:35:31;36.67;;;5.15;;
33830;SDS011;20137;48.834;8.732;2024-01-25T07:37:57;31.02;;;4.95;;
33830;SDS011;20137;48.834;8.732;2024-01-25T07:40:23;29.15;;;5.13;;
33830;SDS011;20137;48.834;8.732;2024-01-25T07:42:49;34.30;;;5.28;;
33830;SDS011;20137;48.834;8.732;2024-01-25T07:45:15;31.50;;;5.25;;
33830;SDS011;20137;48.834;8.732;2024-01-25T07:47:42;25.50;;;4.90;;
33830;SDS011;20137;48.834;8.732;2024-01-25T07:50:11;23.85;;;4.90;;
33830;SDS011;20137;48.834;8.732;2024-01-25T07:52:37;43.35;;;5.90;;
33830;SDS011;20137;48.834;8.732;2024-01-25T07:55:03;27.45;;;5.45;;
33830;SDS011;20137;48.834;8.732;2024-01-25T07:57:29;31.83;;;4.60;;
33830;SDS011;20137;48.834;8.732;2024-01-25T07:59:55;35.78;;;5.63;;
33830;SDS011;20137;48.834;8.732;2024-01-25T08:02:21;38.28;;;6.07;;
33830;SDS011;20137;48.834;8.732;2024-01-25T08:04:47;38.33;;;4.85;;
33830;SDS011;20137;48.834;8.732;2024-01-25T08:07:13;28.23;;;5.28;;
33830;SDS011;20137;48.834;8.732;2024-01-25T08:09:39;31.58;;;4.68;;
33830;SDS011;20137;48.834;8.732;2024-01-25T08:12:06;33.80;;;5.30;;
33830;SDS011;20137;48.834;8.732;2024-01-25T08:14:32;32.92;;;5.35;;
33830;SDS011;20137;48.834;8.732;2024-01-25T08:16:58;47.13;;;6.35;;
33830;SDS011;20137;48.834;8.732;2024-01-25T08:19:24;28.98;;;4.80;;
33830;SDS011;20137;48.834;8.732;2024-01-25T08:21:50;33.55;;;5.22;;
33830;SDS011;20137;48.834;8.732;2024-01-25T08:24:16;29.02;;;5.15;;
33830;SDS011;20137;48.834;8.732;2024-01-25T08:26:43;30.90;;;5.13;;
33830;SDS011;20137;48.834;8.732;2024-01-25T08:29:10;31.92;;;4.97;;
33830;SDS011;20137;48.834;8.732;2024-01-25T08:31:36;26.17;;;4.22;;
33830;SDS011;20137;48.834;8.732;2024-01-25T08:34:02;37.53;;;6.40;;
33830;SDS011;20137;48.834;8.732;2024-01-25T08:36:28;48.35;;;6.88;;
33830;SDS011;20137;48.834;8.732;2024-01-25T08:38:54;25.65;;;5.65;;
33830;SDS011;20137;48.834;8.732;2024-01-25T08:41:20;35.17;;;4.78;;
33830;SDS011;20137;48.834;8.732;2024-01-25T08:43:46;25.88;;;4.57;;
33830;SDS011;20137;48.834;8.732;2024-01-25T08:46:13;35.15;;;4.97;;
33830;SDS011;20137;48.834;8.732;2024-01-25T08:48:39;25.75;;;4.25;;
33830;SDS011;20137;48.834;8.732;2024-01-25T08:51:05;39.63;;;5.63;;
33830;SDS011;20137;48.834;8.732;2024-01-25T08:53:31;36.35;;;5.43;;
33830;SDS011;20137;48.834;8.732;2024-01-25T08:55:57;29.05;;;5.00;;
33830;SDS011;20137;48.834;8.732;2024-01-25T08:58:23;26.33;;;4.88;;
33830;SDS011;20137;48.834;8.732;2024-01-25T09:00:49;35.28;;;5.00;;
33830;SDS011;20137;48.834;8.732;2024-01-25T09:03:16;40.95;;;5.60;;
33830;SDS011;20137;48.834;8.732;2024-01-25T09:05:44;24.00;;;4.72;;
33830;SDS011;20137;48.834;8.732;2024-01-25T09:08:13;31.58;;;4.85;;
33830;SDS011;20137;48.834;8.732;2024-01-25T09:10:40;30.42;;;4.97;;
33830;SDS011;20137;48.834;8.732;2024-01-25T09:13:06;42.70;;;5.45;;
33830;SDS011;20137;48.834;8.732;2024-01-25T09:15:32;32.03;;;4.97;;
33830;SDS011;20137;48.834;8.732;2024-01-25T09:17:58;26.08;;;4.45;;
33830;SDS011;20137;48.834;8.732;2024-01-25T09:20:24;26.85;;;5.13;;
33830;SDS011;20137;48.834;8.732;2024-01-25T09:22:50;22.40;;;4.05;;
33830;SDS011;20137;48.834;8.732;2024-01-25T09:25:19;38.28;;;5.25;;
33830;SDS011;20137;48.834;8.732;2024-01-25T09:27:45;29.00;;;5.15;;
33830;SDS011;20137;48.834;8.732;2024-01-25T09:30:11;32.63;;;4.45;;
33830;SDS011;20137;48.834;8.732;2024-01-25T09:32:37;26.13;;;4.88;;
33830;SDS011;20137;48.834;8.732;2024-01-25T09:35:03;26.70;;;4.60;;
33830;SDS011;20137;48.834;8.732;2024-01-25T09:37:29;23.27;;;3.88;;
33830;SDS011;20137;48.834;8.732;2024-01-25T09:39:55;33.05;;;4.13;;
33830;SDS011;20137;48.834;8.732;2024-01-25T09:42:23;27.23;;;4.97;;
33830;SDS011;20137;48.834;8.732;2024-01-25T09:44:49;25.52;;;3.60;;
33830;SDS011;20137;48.834;8.732;2024-01-25T09:47:16;29.73;;;4.35;;
33830;SDS011;20137;48.834;8.732;2024-01-25T09:49:44;30.30;;;4.38;;
33830;SDS011;20137;48.834;8.732;2024-01-25T09:52:11;27.10;;;4.22;;
33830;SDS011;20137;48.834;8.732;2024-01-25T09:54:38;27.08;;;3.95;;
33830;SDS011;20137;48.834;8.732;2024-01-25T09:57:14;25.23;;;4.35;;
33830;SDS011;20137;48.834;8.732;2024-01-25T09:59:42;32.50;;;4.40;;
33830;SDS011;20137;48.834;8.732;2024-01-25T10:02:09;30.20;;;5.03;;
33830;SDS011;20137;48.834;8.732;2024-01-25T10:04:35;23.98;;;4.72;;
33830;SDS011;20137;48.834;8.732;2024-01-25T10:07:01;27.88;;;4.85;;
33830;SDS011;20137;48.834;8.732;2024-01-25T10:09:27;24.65;;;4.03;;
33830;SDS011;20137;48.834;8.732;2024-01-25T10:11:53;26.17;;;3.78;;
33830;SDS011;20137;48.834;8.732;2024-01-25T10:14:20;33.05;;;4.22;;
33830;SDS011;20137;48.834;8.732;2024-01-25T10:16:46;23.70;;;4.20;;
33830;SDS011;20137;48.834;8.732;2024-01-25T10:19:12;22.77;;;3.78;;
33830;SDS011;20137;48.834;8.732;2024-01-25T10:21:38;20.98;;;4.03;;
33830;SDS011;20137;48.834;8.732;2024-01-25T10:24:07;37.33;;;4.50;;
33830;SDS011;20137;48.834;8.732;2024-01-25T10:26:34;23.48;;;3.80;;
33830;SDS011;20137;48.834;8.732;2024-01-25T10:29:00;20.05;;;3.53;;
33830;SDS011;20137;48.834;8.732;2024-01-25T10:31:28;24.35;;;4.57;;
33830;SDS011;20137;48.834;8.732;2024-01-25T10:33:54;23.45;;;3.25;;
33830;SDS011;20137;48.834;8.732;2024-01-25T10:36:21;25.65;;;3.45;;
33830;SDS011;20137;48.834;8.732;2024-01-25T10:38:50;26.50;;;4.35;;
33830;SDS011;20137;48.834;8.732;2024-01-25T10:41:16;22.88;;;5.50;;
33830;SDS011;20137;48.834;8.732;2024-01-25T10:43:42;22.33;;;3.17;;
33830;SDS011;20137;48.834;8.732;2024-01-25T10:46:08;25.40;;;4.57;;
33830;SDS011;20137;48.834;8.732;2024-01-25T10:48:34;26.33;;;7.63;;
33830;SDS011;20137;48.834;8.732;2024-01-25T10:51:00;36.70;;;12.68;;
33830;SDS011;20137;48.834;8.732;2024-01-25T10:53:33;18.00;;;3.88;;
33830;SDS011;20137;48.834;8.732;2024-01-25T10:56:00;23.50;;;6.20;;
33830;SDS011;20137;48.834;8.732;2024-01-25T10:58:33;24.23;;;3.30;;
33830;SDS011;20137;48.834;8.732;2024-01-25T11:01:00;16.33;;;3.22;;
33830;SDS011;20137;48.834;8.732;2024-01-25T11:03:30;31.27;;;5.60;;
33830;SDS011;20137;48.834;8.732;2024-01-25T11:06:06;23.75;;;4.10;;
33830;SDS011;20137;48.834;8.732;2024-01-25T11:08:33;25.17;;;3.40;;
33830;SDS011;20137;48.834;8.732;2024-01-25T11:10:59;25.42;;;5.13;;
33830;SDS011;20137;48.834;8.732;2024-01-25T11:13:26;15.63;;;2.97;;
33830;SDS011;20137;48.834;8.732;2024-01-25T11:15:52;22.10;;;4.32;;
33830;SDS011;20137;48.834;8.732;2024-01-25T11:18:18;19.40;;;3.33;;
33830;SDS011;20137;48.834;8.732;2024-01-25T11:20:46;27.40;;;8.10;;
33830;SDS011;20137;48.834;8.732;2024-01-25T11:23:15;17.42;;;3.22;;
33830;SDS011;20137;48.834;8.732;2024-01-25T11:25:43;17.75;;;4.35;;
33830;SDS011;20137;48.834;8.732;2024-01-25T11:28:10;16.77;;;3.28;;
33830;SDS011;20137;48.834;8.732;2024-01-25T11:30:36;19.02;;;2.83;;
33830;SDS011;20137;48.834;8.732;2024-01-25T11:33:09;18.60;;;4.60;;
33830;SDS011;20137;48.834;8.732;2024-01-25T11:35:35;21.17;;;2.97;;
33830;SDS011;20137;48.834;8.732;2024-01-25T11:38:01;20.92;;;2.95;;
33830;SDS011;20137;48.834;8.732;2024-01-25T11:40:28;14.40;;;2.70;;
33830;SDS011;20137;48.834;8.732;2024-01-25T11:42:56;14.05;;;2.17;;
33830;SDS011;20137;48.834;8.732;2024-01-25T11:45:22;15.23;;;2.33;;
33830;SDS011;20137;48.834;8.732;2024-01-25T11:47:49;10.43;;;2.35;;
33830;SDS011;20137;48.834;8.732;2024-01-25T11:50:15;16.27;;;3.38;;
33830;SDS011;20137;48.834;8.732;2024-01-25T11:52:41;10.57;;;2.00;;
33830;SDS011;20137;48.834;8.732;2024-01-25T11:55:08;13.27;;;2.72;;
33830;SDS011;20137;48.834;8.732;2024-01-25T11:57:38;18.45;;;2.72;;
33830;SDS011;20137;48.834;8.732;2024-01-25T12:00:12;14.13;;;2.50;;
33830;SDS011;20137;48.834;8.732;2024-01-25T12:02:39;14.18;;;2.40;;
33830;SDS011;20137;48.834;8.732;2024-01-25T12:05:05;18.48;;;2.47;;
33830;SDS011;20137;48.834;8.732;2024-01-25T12:07:35;12.52;;;2.50;;
33830;SDS011;20137;48.834;8.732;2024-01-25T12:10:08;20.77;;;3.13;;
33830;SDS011;20137;48.834;8.732;2024-01-25T12:12:36;14.37;;;2.47;;
33830;SDS011;20137;48.834;8.732;2024-01-25T12:15:05;19.10;;;3.00;;
33830;SDS011;20137;48.834;8.732;2024-01-25T12:17:32;12.40;;;2.70;;
33830;SDS011;20137;48.834;8.732;2024-01-25T12:19:59;13.30;;;2.35;;
33830;SDS011;20137;48.834;8.732;2024-01-25T12:24:56;13.23;;;2.85;;
33830;SDS011;20137;48.834;8.732;2024-01-25T12:27:22;19.25;;;2.63;;
33830;SDS011;20137;48.834;8.732;2024-01-25T12:29:50;10.68;;;2.28;;
33830;SDS011;20137;48.834;8.732;2024-01-25T12:32:18;18.00;;;2.53;;
33830;SDS011;20137;48.834;8.732;2024-01-25T12:37:23;19.80;;;3.25;;
33830;SDS011;20137;48.834;8.732;2024-01-25T12:39:53;14.57;;;2.50;;
33830;SDS011;20137;48.834;8.732;2024-01-25T12:44:57;19.93;;;3.17;;
33830;SDS011;20137;48.834;8.732;2024-01-25T12:47:23;14.30;;;2.38;;
33830;SDS011;20137;48.834;8.732;2024-01-25T12:52:32;13.75;;;2.70;;
33830;SDS011;20137;48.834;8.732;2024-01-25T12:54:58;17.48;;;3.05;;
33830;SDS011;20137;48.834;8.732;2024-01-25T12:57:24;18.23;;;3.58;;
33830;SDS011;20137;48.834;8.732;2024-01-25T12:59:50;19.10;;;2.75;;
33830;SDS011;20137;48.834;8.732;2024-01-25T13:02:16;16.02;;;2.67;;
33830;SDS011;20137;48.834;8.732;2024-01-25T13:04:42;20.70;;;2.83;;
33830;SDS011;20137;48.834;8.732;2024-01-25T13:07:09;26.20;;;6.78;;
33830;SDS011;20137;48.834;8.732;2024-01-25T13:09:35;15.75;;;3.92;;
33830;SDS011;20137;48.834;8.732;2024-01-25T13:12:02;13.80;;;2.53;;
33830;SDS011;20137;48.834;8.732;2024-01-25T13:14:28;15.70;;;2.83;;
33830;SDS011;20137;48.834;8.732;2024-01-25T13:16:54;13.70;;;3.13;;
33830;SDS011;20137;48.834;8.732;2024-01-25T13:19:20;13.07;;;2.08;;
33830;SDS011;20137;48.834;8.732;2024-01-25T13:21:50;17.70;;;3.30;;
33830;SDS011;20137;48.834;8.732;2024-01-25T13:24:16;9.85;;;2.42;;
33830;SDS011;20137;48.834;8.732;2024-01-25T13:26:42;19.35;;;3.70;;
33830;SDS011;20137;48.834;8.732;2024-01-25T13:29:08;12.80;;;2.53;;
33830;SDS011;20137;48.834;8.732;2024-01-25T13:31:37;10.52;;;2.83;;
33830;SDS011;20137;48.834;8.732;2024-01-25T13:34:03;16.67;;;2.53;;
33830;SDS011;20137;48.834;8.732;2024-01-25T13:36:29;11.07;;;2.28;;
33830;SDS011;20137;48.834;8.732;2024-01-25T13:38:55;12.82;;;2.33;;
33830;SDS011;20137;48.834;8.732;2024-01-25T13:41:21;18.55;;;2.58;;
33830;SDS011;20137;48.834;8.732;2024-01-25T13:43:47;17.70;;;2.92;;
33830;SDS011;20137;48.834;8.732;2024-01-25T13:46:13;12.68;;;2.05;;
33830;SDS011;20137;48.834;8.732;2024-01-25T13:48:39;12.65;;;2.28;;
33830;SDS011;20137;48.834;8.732;2024-01-25T13:51:05;17.83;;;2.50;;
33830;SDS011;20137;48.834;8.732;2024-01-25T13:53:31;10.30;;;2.03;;
33830;SDS011;20137;48.834;8.732;2024-01-25T13:55:59;12.52;;;3.00;;
33830;SDS011;20137;48.834;8.732;2024-01-25T13:58:25;11.30;;;2.50;;
33830;SDS011;20137;48.834;8.732;2024-01-25T14:00:51;12.02;;;2.38;;
33830;SDS011;20137;48.834;8.732;2024-01-25T14:03:17;10.82;;;2.78;;
33830;SDS011;20137;48.834;8.732;2024-01-25T14:05:43;11.93;;;2.15;;
33830;SDS011;20137;48.834;8.732;2024-01-25T14:08:09;15.18;;;2.40;;
33830;SDS011;20137;48.834;8.732;2024-01-25T14:10:35;10.45;;;2.13;;
33830;SDS011;20137;48.834;8.732;2024-01-25T14:13:01;20.85;;;2.72;;
33830;SDS011;20137;48.834;8.732;2024-01-25T14:15:28;14.05;;;3.28;;
33830;SDS011;20137;48.834;8.732;2024-01-25T14:17:54;12.05;;;2.75;;
33830;SDS011;20137;48.834;8.732;2024-01-25T14:20:20;16.50;;;2.40;;
33830;SDS011;20137;48.834;8.732;2024-01-25T14:22:47;15.55;;;2.88;;
33830;SDS011;20137;48.834;8.732;2024-01-25T14:25:13;12.15;;;2.40;;
33830;SDS011;20137;48.834;8.732;2024-01-25T14:27:39;13.02;;;2.30;;
33830;SDS011;20137;48.834;8.732;2024-01-25T14:30:06;13.57;;;2.75;;
33830;SDS011;20137;48.834;8.732;2024-01-25T14:32:32;12.93;;;2.47;;
33830;SDS011;20137;48.834;8.732;2024-01-25T14:34:58;10.93;;;2.85;;
33830;SDS011;20137;48.834;8.732;2024-01-25T14:37:24;13.40;;;2.22;;
33830;SDS011;20137;48.834;8.732;2024-01-25T14:39:51;12.75;;;2.03;;